Time;durP1;ratioP1;P1;durP2;ratioP2;P2;SDS_P1;SDS_P2;PMS_P1;PMS_P2;Temp;Humidity;BMP_temperature;BMP_pressure;BME280_temperature;BME280_humidity;BME280_pressure;Samples;Min_cycle;Max_cycle;Signal;HPM_P1;HPM_P2
2022/07/14 00:00:20;;;;;;;13.60;2.50;;;;;;;19.10;68.44;102142.44;6306544;22;20026;-77
2022/07/14 00:02:46;;;;;;;14.45;3.00;;;;;;;18.99;68.62;102136.25;6306654;22;20003;-78
2022/07/14 00:05:11;;;;;;;10.45;2.63;;;;;;;18.99;69.14;102144.06;6229245;22;20026;-78
2022/07/14 00:07:36;;;;;;;11.10;2.70;;;;;;;18.95;69.04;102137.91;6279651;22;20015;-77
2022/07/14 00:10:03;;;;;;;11.25;2.40;;;;;;;18.95;69.17;102134.44;6307501;22;20360;-77
2022/07/14 00:12:31;;;;;;;14.15;2.88;;;;;;;18.94;69.12;102133.56;6308252;22;20010;-77
2022/07/14 00:14:56;;;;;;;12.23;2.80;;;;;;;18.87;69.32;102129.13;6308472;22;20011;-78
2022/07/14 00:17:22;;;;;;;19.25;3.40;;;;;;;18.92;69.27;102137.00;6255267;22;20061;-77
2022/07/14 00:19:47;;;;;;;11.00;2.47;;;;;;;18.83;69.15;102132.53;6281174;22;20011;-77
2022/07/14 00:22:13;;;;;;;9.75;2.60;;;;;;;18.81;69.85;102128.13;6308688;22;20010;-77
2022/07/14 00:24:38;;;;;;;13.70;2.45;;;;;;;18.78;69.73;102128.09;6307281;22;20015;-77
2022/07/14 00:27:04;;;;;;;9.02;2.40;;;;;;;18.76;69.34;102122.88;6254573;22;20380;-78
2022/07/14 00:29:29;;;;;;;12.50;2.83;;;;;;;18.77;69.85;102116.81;6229996;22;20018;-78
2022/07/14 00:31:54;;;;;;;14.25;2.95;;;;;;;18.73;70.01;102115.00;6278866;22;20060;-78
2022/07/14 00:34:21;;;;;;;14.15;2.90;;;;;;;18.70;70.03;102110.63;6305833;22;20022;-78
2022/07/14 00:36:46;;;;;;;13.02;2.83;;;;;;;18.68;70.02;102116.66;6279635;22;20068;-78
2022/07/14 00:39:12;;;;;;;12.68;2.72;;;;;;;18.73;69.90;102115.88;6277833;22;20003;-78
2022/07/14 00:41:37;;;;;;;11.95;2.47;;;;;;;18.80;69.21;102123.78;6305094;22;20014;-78
2022/07/14 00:44:03;;;;;;;12.57;2.78;;;;;;;18.71;69.95;102120.19;6307066;22;20012;-78
2022/07/14 00:46:28;;;;;;;14.90;3.05;;;;;;;18.61;69.82;102105.25;6305709;22;20061;-78
2022/07/14 00:48:54;;;;;;;13.73;3.22;;;;;;;18.65;69.61;102111.38;6255986;22;20011;-78
2022/07/14 00:51:19;;;;;;;13.23;2.63;;;;;;;18.60;70.06;102119.13;6278502;22;20007;-78
2022/07/14 00:53:51;;;;;;;10.65;2.80;;;;;;;18.64;70.22;102118.34;6281047;22;20008;-78
2022/07/14 00:56:16;;;;;;;14.25;2.85;;;;;;;18.59;69.97;102111.31;6307239;22;20007;-78
2022/07/14 00:58:42;;;;;;;10.32;2.67;;;;;;;18.53;70.46;102116.41;6307170;22;20442;-78
2022/07/14 01:01:07;;;;;;;13.95;3.00;;;;;;;18.51;70.42;102116.41;6255301;22;20346;-78
2022/07/14 01:03:33;;;;;;;13.43;2.80;;;;;;;18.52;70.68;102120.75;6252540;22;20031;-78
2022/07/14 01:05:58;;;;;;;10.60;2.78;;;;;;;18.53;70.54;102130.31;6279347;22;20010;-78
2022/07/14 01:08:24;;;;;;;10.80;2.60;;;;;;;18.48;70.68;102109.41;6279978;22;20292;-78
2022/07/14 01:10:49;;;;;;;12.75;3.10;;;;;;;18.41;70.64;102117.97;6306590;22;20525;-78
2022/07/14 01:13:15;;;;;;;11.88;2.55;;;;;;;18.43;70.35;102125.81;6278970;22;20010;-78
2022/07/14 01:15:40;;;;;;;10.40;2.75;;;;;;;18.39;70.66;102134.44;6253906;22;20011;-78
2022/07/14 01:18:06;;;;;;;9.65;2.47;;;;;;;18.32;71.24;102128.25;6305980;22;19987;-78
2022/07/14 01:20:31;;;;;;;12.10;2.35;;;;;;;18.34;70.92;102141.31;6306206;22;20074;-78
2022/07/14 01:22:56;;;;;;;9.98;2.72;;;;;;;18.32;71.06;102138.69;6278534;22;20038;-78
2022/07/14 01:25:22;;;;;;;14.38;2.75;;;;;;;18.31;71.39;102142.09;6305305;22;20003;-79
2022/07/14 01:27:48;;;;;;;16.80;3.33;;;;;;;18.27;71.02;102145.53;6252525;22;20110;-78
2022/07/14 01:30:14;;;;;;;12.00;2.65;;;;;;;18.27;71.52;102149.88;6279757;22;21036;-78
2022/07/14 01:32:40;;;;;;;14.85;2.85;;;;;;;18.25;71.38;102149.81;6278062;22;20013;-78
2022/07/14 01:35:06;;;;;;;9.40;2.80;;;;;;;18.31;70.99;102162.06;6305409;22;20011;-78
2022/07/14 01:37:32;;;;;;;10.65;2.50;;;;;;;18.26;71.22;102161.09;6306723;22;20085;-78
2022/07/14 01:39:58;;;;;;;13.82;2.92;;;;;;;18.20;71.33;102154.97;6278616;22;20007;-78
2022/07/14 01:42:23;;;;;;;11.85;2.78;;;;;;;18.26;71.04;102153.28;6306421;22;20031;-78
2022/07/14 01:44:48;;;;;;;14.90;3.17;;;;;;;18.24;71.17;102140.25;6306732;22;20007;-78
2022/07/14 01:47:14;;;;;;;10.15;2.60;;;;;;;18.20;71.23;102144.56;6253929;22;20018;-78
2022/07/14 01:49:40;;;;;;;11.88;2.63;;;;;;;18.23;71.04;102149.78;6304594;22;20007;-78
2022/07/14 01:52:06;;;;;;;10.68;3.05;;;;;;;18.22;71.15;102147.19;6305032;22;20034;-78
2022/07/14 01:54:32;;;;;;;12.27;2.95;;;;;;;18.17;71.38;102134.06;6252177;22;20014;-78
2022/07/14 01:56:57;;;;;;;11.10;3.10;;;;;;;18.17;71.39;102141.00;6276991;22;20033;-78
2022/07/14 01:59:23;;;;;;;13.63;3.58;;;;;;;18.14;71.57;102134.03;6278673;22;20058;-78
2022/07/14 02:01:48;;;;;;;14.32;3.42;;;;;;;18.16;71.39;102136.66;6279071;22;20009;-79
2022/07/14 02:04:17;;;;;;;11.90;3.05;;;;;;;18.01;71.84;102132.03;6278066;22;20071;-78
2022/07/14 02:06:51;;;;;;;20.15;3.78;;;;;;;18.11;71.75;102131.38;6306275;22;20007;-79
2022/07/14 02:09:18;;;;;;;15.95;3.15;;;;;;;18.02;71.89;102132.91;6306896;22;19999;-78
2022/07/14 02:14:29;;;;;;;12.30;3.20;;;;;;;17.94;71.76;102131.06;6283738;22;20026;-78
2022/07/14 02:16:55;;;;;;;9.88;3.67;;;;;;;17.95;72.29;102131.94;6304378;22;20003;-78
2022/07/14 02:19:23;;;;;;;13.35;3.20;;;;;;;17.92;72.30;102127.56;6306012;22;20322;-78
2022/07/14 02:21:49;;;;;;;13.40;3.42;;;;;;;17.96;72.48;102128.50;6280593;22;20003;-78
2022/07/14 02:24:15;;;;;;;12.07;3.17;;;;;;;17.92;72.14;102127.56;6277456;22;20010;-78
2022/07/14 02:26:41;;;;;;;13.73;3.40;;;;;;;17.84;72.36;102129.16;6252631;22;20004;-78
2022/07/14 02:29:07;;;;;;;13.55;3.38;;;;;;;17.82;72.55;102130.84;6306841;22;20007;-78
2022/07/14 02:31:33;;;;;;;14.32;3.40;;;;;;;17.72;72.48;102135.88;6304699;22;20015;-78
2022/07/14 02:34:00;;;;;;;13.65;3.13;;;;;;;17.72;72.85;102133.28;6278463;22;20430;-78
2022/07/14 02:36:25;;;;;;;12.68;3.22;;;;;;;17.74;72.91;102136.75;6277505;22;20015;-78
2022/07/14 02:38:51;;;;;;;17.27;4.40;;;;;;;17.70;72.68;102133.19;6278652;22;20434;-78
2022/07/14 02:41:17;;;;;;;13.88;3.20;;;;;;;17.64;73.15;102127.88;6279441;22;20011;-78
2022/07/14 02:43:42;;;;;;;11.05;3.15;;;;;;;17.62;72.96;102133.03;6252931;22;20007;-78
2022/07/14 02:46:08;;;;;;;14.45;3.55;;;;;;;17.60;73.19;102139.06;6275668;22;20015;-78
2022/07/14 02:48:34;;;;;;;13.27;3.78;;;;;;;17.61;73.43;102133.03;6279655;22;20017;-78
2022/07/14 02:51:08;;;;;;;14.75;3.60;;;;;;;17.62;73.04;102127.84;6252921;22;20098;-78
2022/07/14 02:53:34;;;;;;;12.90;3.33;;;;;;;17.54;73.72;102128.56;6306147;22;20418;-78
2022/07/14 02:56:05;;;;;;;13.60;3.80;;;;;;;17.47;73.78;102127.53;6306672;22;20082;-78
2022/07/14 02:58:31;;;;;;;20.48;4.00;;;;;;;17.44;74.20;102122.28;6307792;22;19984;-78
2022/07/14 03:00:56;;;;;;;14.38;3.83;;;;;;;17.37;74.04;102121.28;6309164;22;20061;-78
2022/07/14 03:03:22;;;;;;;14.02;4.05;;;;;;;17.34;74.05;102109.94;6254885;22;20011;-78
2022/07/14 03:05:49;;;;;;;13.70;3.70;;;;;;;17.32;74.16;102116.84;6278197;22;20039;-78
2022/07/14 03:08:15;;;;;;;12.85;3.60;;;;;;;17.24;74.37;102115.81;6253652;22;20064;-78
2022/07/14 03:10:41;;;;;;;11.23;3.53;;;;;;;17.24;74.58;102106.28;6280041;22;20015;-78
2022/07/14 03:13:07;;;;;;;14.82;3.90;;;;;;;17.20;74.51;102104.47;6280690;22;20419;-78
2022/07/14 03:15:32;;;;;;;12.82;3.67;;;;;;;17.12;74.82;102104.31;6306568;22;20003;-77
2022/07/14 03:17:58;;;;;;;16.08;4.20;;;;;;;17.14;74.57;102100.00;6307252;22;20015;-77
2022/07/14 03:20:24;;;;;;;10.20;3.72;;;;;;;17.07;75.23;102087.75;6280452;22;20431;-77
2022/07/14 03:22:49;;;;;;;13.35;4.18;;;;;;;17.08;74.87;102093.81;6306866;22;20074;-78
2022/07/14 03:25:14;;;;;;;12.73;3.85;;;;;;;17.04;74.97;102090.25;6307230;22;20330;-78
2022/07/14 03:27:41;;;;;;;14.60;3.72;;;;;;;17.07;74.89;102090.34;6254359;22;20361;-77
2022/07/14 03:30:07;;;;;;;11.98;3.97;;;;;;;17.03;74.96;102088.50;6255743;22;20461;-78
2022/07/14 03:32:33;;;;;;;18.00;4.38;;;;;;;17.05;74.96;102091.16;6308146;22;20006;-77
2022/07/14 03:35:02;;;;;;;12.93;3.95;;;;;;;16.98;75.14;102084.06;6280388;22;20011;-78
2022/07/14 03:37:28;;;;;;;13.40;3.65;;;;;;;16.93;75.36;102081.38;6307787;22;20007;-77
2022/07/14 03:39:53;;;;;;;13.35;3.72;;;;;;;16.91;75.07;102082.19;6280179;22;20027;-77
2022/07/14 03:42:19;;;;;;;12.00;3.95;;;;;;;16.87;75.55;102086.47;6253880;22;20634;-78
2022/07/14 03:44:45;;;;;;;13.27;4.10;;;;;;;16.87;75.41;102097.72;6281175;22;20018;-77
2022/07/14 03:47:10;;;;;;;13.55;3.95;;;;;;;16.89;75.06;102101.22;6278742;22;20052;-77
2022/07/14 03:49:36;;;;;;;13.23;3.88;;;;;;;16.80;75.97;102095.81;6280622;22;20501;-78
2022/07/14 03:52:01;;;;;;;13.43;3.60;;;;;;;16.83;75.53;102095.00;6305357;22;20097;-77
2022/07/14 03:54:27;;;;;;;13.00;3.78;;;;;;;16.80;75.19;102100.13;6307642;22;20073;-78
2022/07/14 03:56:52;;;;;;;17.52;3.78;;;;;;;16.77;75.25;102100.06;6306772;22;20078;-77
2022/07/14 03:59:18;;;;;;;14.68;3.67;;;;;;;16.72;75.12;102097.38;6229652;22;20033;-77
2022/07/14 04:01:43;;;;;;;14.68;3.85;;;;;;;16.72;75.63;102099.09;6278435;22;20065;-78
2022/07/14 04:04:08;;;;;;;15.02;4.00;;;;;;;16.68;75.66;102100.69;6281421;22;20011;-77
2022/07/14 04:06:34;;;;;;;14.93;3.70;;;;;;;16.66;75.71;102109.31;6280188;22;20030;-78
2022/07/14 04:09:00;;;;;;;10.43;3.45;;;;;;;16.72;75.80;102106.88;6254675;22;20007;-77
2022/07/14 04:11:26;;;;;;;16.85;4.03;;;;;;;16.70;75.30;102104.25;6282760;22;20011;-78
2022/07/14 04:13:51;;;;;;;17.52;3.90;;;;;;;16.70;75.27;102096.47;6311986;22;20003;-78
2022/07/14 04:16:17;;;;;;;12.82;3.67;;;;;;;16.77;75.37;102100.94;6306357;22;20031;-77
2022/07/14 04:18:42;;;;;;;18.50;3.55;;;;;;;16.69;75.73;102091.22;6308496;22;20007;-77
2022/07/14 04:21:08;;;;;;;15.05;4.10;;;;;;;16.67;75.48;102090.28;6307795;22;20057;-77
2022/07/14 04:23:34;;;;;;;14.95;4.05;;;;;;;16.71;75.25;102098.22;6279944;22;20003;-76
2022/07/14 04:26:01;;;;;;;15.63;4.13;;;;;;;16.67;75.76;102100.66;6307096;22;20014;-77
2022/07/14 04:28:27;;;;;;;14.18;3.67;;;;;;;16.76;75.75;102094.00;6307215;22;20013;-77
2022/07/14 04:30:53;;;;;;;13.75;3.92;;;;;;;16.68;75.41;102094.63;6307058;22;20003;-77
2022/07/14 04:33:20;;;;;;;13.93;4.03;;;;;;;16.74;75.18;102089.59;6253008;22;20018;-77
2022/07/14 04:35:45;;;;;;;14.60;3.90;;;;;;;16.69;75.43;102086.91;6305380;22;20426;-78
2022/07/14 04:38:11;;;;;;;12.40;3.72;;;;;;;16.85;75.10;102090.72;6279944;22;20029;-77
2022/07/14 04:40:38;;;;;;;11.55;4.22;;;;;;;16.82;75.47;102101.94;6255713;22;20007;-78
2022/07/14 04:43:05;;;;;;;14.75;4.13;;;;;;;16.85;75.16;102094.19;6310347;22;20012;-78
2022/07/14 04:45:30;;;;;;;15.73;4.20;;;;;;;16.83;75.19;102092.41;6281239;22;20041;-78
2022/07/14 04:47:56;;;;;;;15.98;4.22;;;;;;;16.88;74.89;102091.69;6253075;22;20030;-78
2022/07/14 04:53:05;;;;;;;15.43;3.70;;;;;;;16.87;74.36;102102.91;6307775;22;20503;-78
2022/07/14 04:55:32;;;;;;;17.27;3.47;;;;;;;16.86;74.45;102097.66;6307914;22;20070;-77
2022/07/14 04:57:57;;;;;;;13.05;3.83;;;;;;;16.93;74.62;102096.06;6254518;22;20407;-78
2022/07/14 05:00:23;;;;;;;13.80;3.70;;;;;;;16.95;74.19;102103.06;6252930;22;20014;-77
2022/07/14 05:02:48;;;;;;;12.50;3.58;;;;;;;16.93;74.38;102107.38;6306222;22;20018;-78
2022/07/14 05:05:14;;;;;;;16.65;4.43;;;;;;;16.92;74.21;102104.72;6278676;22;20559;-79
2022/07/14 05:07:39;;;;;;;15.55;4.18;;;;;;;17.02;74.25;102117.06;6277752;22;20078;-78
2022/07/14 05:10:05;;;;;;;11.65;3.60;;;;;;;17.07;74.03;102118.06;6277674;22;20917;-78
2022/07/14 05:12:31;;;;;;;15.70;3.75;;;;;;;17.10;73.91;102115.50;6305228;22;20418;-78
2022/07/14 05:14:57;;;;;;;15.18;3.60;;;;;;;17.08;73.42;102112.88;6278320;22;20125;-78
2022/07/14 05:17:22;;;;;;;12.45;3.30;;;;;;;17.10;74.18;102121.56;6279388;22;20037;-77
2022/07/14 05:19:49;;;;;;;13.10;3.88;;;;;;;17.19;72.62;102117.44;6278587;22;20015;-78
2022/07/14 05:22:15;;;;;;;15.32;3.60;;;;;;;17.22;73.35;102122.69;6279445;22;20013;-78
2022/07/14 05:24:40;;;;;;;19.85;4.00;;;;;;;17.25;72.78;102120.16;6307117;22;20007;-78
2022/07/14 05:27:07;;;;;;;12.98;3.50;;;;;;;17.29;72.92;102116.75;6251101;22;20422;-78
2022/07/14 05:29:33;;;;;;;12.13;3.63;;;;;;;17.26;71.95;102108.91;6306205;22;20050;-79
2022/07/14 05:31:58;;;;;;;14.93;3.60;;;;;;;17.35;72.59;102110.00;6278330;22;20495;-78
2022/07/14 05:34:23;;;;;;;15.55;3.72;;;;;;;17.38;72.01;102114.38;6254758;22;20728;-78
2022/07/14 05:36:49;;;;;;;12.93;3.22;;;;;;;17.45;72.51;102120.56;6253326;22;20007;-77
2022/07/14 05:39:14;;;;;;;16.65;3.38;;;;;;;17.43;71.94;102115.34;6305990;22;20014;-78
2022/07/14 05:41:40;;;;;;;18.55;3.70;;;;;;;17.53;71.55;102118.97;6281801;22;20021;-78
2022/07/14 05:44:05;;;;;;;14.55;3.65;;;;;;;17.61;71.35;102120.03;6278052;22;20086;-79
2022/07/14 05:46:30;;;;;;;16.58;4.10;;;;;;;17.66;70.67;102119.25;6230087;22;20449;-79
2022/07/14 05:48:56;;;;;;;15.77;3.90;;;;;;;17.70;70.85;102115.84;6306282;22;20086;-78
2022/07/14 05:51:22;;;;;;;16.67;3.90;;;;;;;17.73;70.34;102114.19;6306327;22;20486;-78
2022/07/14 05:53:48;;;;;;;17.77;3.88;;;;;;;17.72;70.70;102108.13;6280072;22;20007;-79
2022/07/14 05:56:17;;;;;;;14.60;4.28;;;;;;;17.74;69.98;102111.63;6279484;22;20003;-78
2022/07/14 05:58:44;;;;;;;13.43;3.85;;;;;;;17.76;70.17;102111.66;6279808;22;20010;-78
2022/07/14 06:01:10;;;;;;;15.07;4.15;;;;;;;17.84;70.00;102112.69;6279167;22;20022;-78
2022/07/14 06:03:35;;;;;;;12.93;3.83;;;;;;;17.87;70.03;102116.19;6306940;22;20007;-77
2022/07/14 06:06:06;;;;;;;18.63;4.05;;;;;;;18.00;70.13;102112.09;6279153;22;20086;-78
2022/07/14 06:08:32;;;;;;;12.98;3.95;;;;;;;17.94;68.98;102112.84;6306456;22;20014;-78
2022/07/14 06:10:58;;;;;;;14.32;4.57;;;;;;;18.03;69.86;102109.53;6304563;22;20078;-78
2022/07/14 06:13:25;;;;;;;13.02;3.88;;;;;;;18.14;69.79;102108.00;6305728;22;20045;-78
2022/07/14 06:15:51;;;;;;;12.90;3.97;;;;;;;18.23;69.54;102108.13;6280077;22;20041;-78
2022/07/14 06:18:17;;;;;;;15.80;4.13;;;;;;;18.37;69.07;102104.88;6253486;22;20015;-78
2022/07/14 06:20:43;;;;;;;17.20;4.53;;;;;;;18.48;68.57;102101.59;6306920;22;20445;-78
2022/07/14 06:23:09;;;;;;;11.70;4.05;;;;;;;18.59;68.73;102104.34;6279523;22;20007;-78
2022/07/14 06:25:39;;;;;;;12.95;4.60;;;;;;;18.59;67.82;102106.97;6279236;22;20003;-78
2022/07/14 06:28:33;;;;;;;14.35;4.90;;;;;;;18.71;68.04;102109.78;6307241;22;20011;-78
2022/07/14 06:30:58;;;;;;;17.88;4.70;;;;;;;18.72;67.46;102092.41;6277915;22;20010;-78
2022/07/14 06:33:24;;;;;;;13.15;4.32;;;;;;;18.88;67.07;102109.16;6247736;22;20046;-78
2022/07/14 06:35:49;;;;;;;12.57;4.90;;;;;;;18.87;65.49;102104.75;6273886;22;20007;-78
2022/07/14 06:38:15;;;;;;;15.75;4.13;;;;;;;18.96;66.23;102113.59;6275474;22;20012;-78
2022/07/14 06:40:41;;;;;;;17.75;4.40;;;;;;;19.08;65.27;102123.31;6247973;22;20012;-78
2022/07/14 06:43:06;;;;;;;14.10;3.60;;;;;;;19.17;65.65;102127.75;6274703;22;20473;-78
2022/07/14 06:45:32;;;;;;;16.88;3.92;;;;;;;19.24;64.60;102127.88;6249103;22;20004;-78
2022/07/14 06:47:57;;;;;;;11.00;3.58;;;;;;;19.23;63.75;102122.63;6276043;22;20061;-78
2022/07/14 06:50:22;;;;;;;14.65;3.83;;;;;;;19.41;64.70;102124.56;6247464;22;20033;-78
2022/07/14 06:52:48;;;;;;;15.32;3.65;;;;;;;19.45;64.33;102123.75;6223505;22;20039;-78
2022/07/14 06:55:13;;;;;;;17.83;3.80;;;;;;;19.46;63.59;102120.28;6276281;22;20088;-79
2022/07/14 06:57:39;;;;;;;12.18;3.63;;;;;;;19.53;62.98;102116.88;6275336;22;20067;-78
2022/07/14 07:00:07;;;;;;;12.75;4.55;;;;;;;19.56;62.61;102116.94;6274752;22;20007;-79
2022/07/14 07:02:36;;;;;;;16.73;3.53;;;;;;;19.68;62.82;102111.00;6274046;22;20029;-79
2022/07/14 07:07:51;;;;;;;11.23;3.30;;;;;;;19.79;63.27;102110.25;6275179;22;20326;-79
2022/07/14 07:10:17;;;;;;;14.45;3.67;;;;;;;19.83;62.52;102112.03;6272904;22;20086;-79
2022/07/14 07:12:43;;;;;;;11.73;3.08;;;;;;;19.92;62.41;102116.47;6273740;22;20007;-79
2022/07/14 07:15:09;;;;;;;12.40;3.65;;;;;;;19.90;61.23;102109.47;6273424;22;20016;-78
2022/07/14 07:17:34;;;;;;;15.02;3.65;;;;;;;19.98;62.33;102111.31;6275441;22;20350;-79
2022/07/14 07:20:00;;;;;;;13.32;3.47;;;;;;;20.09;62.16;102109.66;6275468;22;20019;-79
2022/07/14 07:22:26;;;;;;;13.15;2.90;;;;;;;20.06;62.88;102099.19;6274292;22;20000;-79
2022/07/14 07:24:51;;;;;;;14.15;3.22;;;;;;;20.11;60.92;102100.97;6275699;22;20003;-79
2022/07/14 07:27:17;;;;;;;10.38;3.33;;;;;;;20.25;61.28;102109.78;6275791;22;20012;-79
2022/07/14 07:29:42;;;;;;;13.68;3.20;;;;;;;20.32;62.03;102107.25;6275074;22;20420;-79
2022/07/14 07:32:08;;;;;;;12.23;3.30;;;;;;;20.41;60.16;102093.38;6272000;22;20043;-79
2022/07/14 07:34:36;;;;;;;12.88;3.47;;;;;;;20.41;58.82;102092.50;6300760;22;20007;-79
2022/07/14 07:37:03;;;;;;;13.37;3.20;;;;;;;20.47;60.12;102092.56;6306467;22;20004;-79
2022/07/14 07:39:28;;;;;;;14.23;3.40;;;;;;;20.44;58.91;102085.53;6277875;22;20034;-80
2022/07/14 07:41:55;;;;;;;11.05;3.00;;;;;;;20.49;58.11;102089.09;6307972;22;20011;-79
2022/07/14 07:44:22;;;;;;;13.15;3.30;;;;;;;20.53;57.93;102096.09;6307792;22;20281;-79
2022/07/14 07:46:47;;;;;;;16.23;3.30;;;;;;;20.59;58.69;102090.03;6309412;22;19999;-79
2022/07/14 07:49:13;;;;;;;13.93;3.35;;;;;;;20.63;57.83;102089.19;6281661;22;20161;-78
2022/07/14 07:51:38;;;;;;;8.18;2.50;;;;;;;20.65;57.49;102071.78;6280823;22;20003;-79
2022/07/14 07:54:05;;;;;;;13.30;3.08;;;;;;;20.73;58.19;102083.13;6280147;22;20011;-79
2022/07/14 07:56:31;;;;;;;10.65;3.15;;;;;;;20.75;57.93;102080.53;6279776;22;20061;-79
2022/07/14 07:58:56;;;;;;;10.10;2.80;;;;;;;20.88;57.54;102079.75;6304556;22;20010;-79
2022/07/14 08:01:22;;;;;;;9.82;2.78;;;;;;;20.96;56.69;102075.41;6281775;22;20033;-79
2022/07/14 08:03:47;;;;;;;10.20;2.80;;;;;;;20.90;54.34;102072.78;6280743;22;20037;-79
2022/07/14 08:06:16;;;;;;;9.35;2.80;;;;;;;20.93;55.65;102069.28;6307440;22;20023;-79
2022/07/14 08:08:41;;;;;;;13.68;2.75;;;;;;;20.98;57.20;102072.81;6308239;22;20015;-79
2022/07/14 08:11:07;;;;;;;10.07;2.38;;;;;;;20.97;55.79;102065.81;6307633;22;20030;-79
2022/07/14 08:13:32;;;;;;;9.85;2.72;;;;;;;20.99;55.17;102064.09;6307740;22;20016;-79
2022/07/14 08:15:58;;;;;;;8.93;2.38;;;;;;;20.98;54.11;102059.72;6307985;22;20003;-79
2022/07/14 08:18:24;;;;;;;12.05;3.08;;;;;;;21.01;54.52;102063.25;6306975;22;20050;-79
2022/07/14 08:20:52;;;;;;;10.85;2.72;;;;;;;21.02;54.15;102064.13;6306759;22;20003;-76
2022/07/14 08:23:17;;;;;;;8.05;2.38;;;;;;;21.02;54.88;102056.28;6307286;22;20007;-79
2022/07/14 08:25:43;;;;;;;10.80;2.35;;;;;;;21.08;54.47;102058.91;6308224;22;20076;-79
2022/07/14 08:28:09;;;;;;;9.20;2.45;;;;;;;21.17;55.08;102056.31;6255984;22;20014;-79
2022/07/14 08:30:34;;;;;;;8.70;2.28;;;;;;;21.27;53.70;102050.25;6280440;22;20015;-79
2022/07/14 08:33:00;;;;;;;8.02;2.35;;;;;;;21.28;54.78;102046.75;6308377;22;20019;-79
2022/07/14 08:35:26;;;;;;;9.73;2.10;;;;;;;21.32;52.37;102048.53;6280105;22;20011;-78
2022/07/14 08:37:52;;;;;;;8.57;1.88;;;;;;;21.32;50.78;102039.84;6279805;22;20008;-79
2022/07/14 08:40:20;;;;;;;7.28;2.08;;;;;;;21.26;52.80;102047.63;6307934;22;20014;-78
2022/07/14 08:42:50;;;;;;;8.23;2.00;;;;;;;21.36;53.36;102049.44;6278592;22;19999;-78
2022/07/14 08:45:19;;;;;;;12.60;2.63;;;;;;;21.42;52.68;102047.72;6306848;22;20026;-78
2022/07/14 08:47:48;;;;;;;7.80;2.50;;;;;;;21.47;52.90;102041.59;6277946;22;20004;-79
2022/07/14 08:50:23;;;;;;;11.98;3.15;;;;;;;21.48;53.02;102041.63;6306104;22;20003;-79
2022/07/14 08:52:49;;;;;;;8.80;2.10;;;;;;;21.57;53.00;102031.16;6304896;22;20426;-79
2022/07/14 08:55:17;;;;;;;8.25;1.98;;;;;;;21.65;52.62;102033.75;6308177;22;20023;-79
2022/07/14 08:57:43;;;;;;;7.93;1.50;;;;;;;21.72;51.14;102038.16;6315835;22;20003;-78
2022/07/14 09:00:17;;;;;;;6.13;1.70;;;;;;;21.78;50.26;102032.91;6262313;22;20037;-79
2022/07/14 09:02:49;;;;;;;7.22;1.60;;;;;;;21.63;48.08;102041.63;6262514;22;20012;-78
2022/07/14 09:05:16;;;;;;;6.85;1.50;;;;;;;21.56;48.92;102036.38;6313186;22;20003;-78
2022/07/14 09:07:41;;;;;;;8.35;1.60;;;;;;;21.61;50.47;102032.91;6312174;22;20418;-78
2022/07/14 09:10:10;;;;;;;10.48;1.70;;;;;;;21.66;49.67;102033.78;6284309;22;20030;-78
2022/07/14 09:12:41;;;;;;;6.30;1.55;;;;;;;21.71;48.17;102031.16;6314248;22;20003;-78
2022/07/14 09:18:19;;;;;;;6.88;1.45;;;;;;;21.99;49.55;102036.41;6311483;22;20014;-78
2022/07/14 09:20:45;;;;;;;6.03;1.60;;;;;;;22.09;48.31;102032.91;6313233;22;20029;-79
2022/07/14 09:23:10;;;;;;;6.03;1.40;;;;;;;22.14;49.32;102031.16;6313371;22;20015;-79
2022/07/14 09:25:37;;;;;;;7.60;1.67;;;;;;;22.21;49.35;102032.94;6259932;22;20014;-79
2022/07/14 09:28:04;;;;;;;8.43;1.63;;;;;;;22.23;48.04;102030.28;6286044;22;20105;-79
2022/07/14 09:30:31;;;;;;;4.95;1.50;;;;;;;22.28;47.67;102026.78;6314124;22;20014;-79
2022/07/14 09:33:04;;;;;;;6.25;1.75;;;;;;;22.35;47.45;102031.16;6285814;22;20015;-80
2022/07/14 09:35:34;;;;;;;7.70;1.60;;;;;;;22.42;48.66;102032.00;6286971;22;20034;-77
2022/07/14 09:38:23;;;;;;;8.05;1.60;;;;;;;22.46;48.48;102024.13;6286335;22;20015;-79
2022/07/14 09:40:50;;;;;;;7.03;1.80;;;;;;;22.55;49.20;102027.59;6286460;22;20338;-78
2022/07/14 09:43:17;;;;;;;8.63;1.73;;;;;;;22.52;48.18;102011.88;6285490;22;20014;-79
2022/07/14 09:45:50;;;;;;;6.38;1.42;;;;;;;22.61;49.41;102020.56;6286399;22;20060;-78
2022/07/14 09:48:20;;;;;;;6.35;1.77;;;;;;;22.68;49.43;102027.53;6286521;22;20433;-79
2022/07/14 09:51:07;;;;;;;7.22;1.38;;;;;;;22.72;48.40;102025.78;6261016;22;20401;-79
2022/07/14 09:53:34;;;;;;;6.15;1.67;;;;;;;22.68;46.77;102021.44;6315306;22;20402;-78
2022/07/14 09:56:08;;;;;;;7.13;2.15;;;;;;;22.70;46.75;102024.94;6287230;22;20464;-79
2022/07/14 09:58:40;;;;;;;10.20;1.77;;;;;;;22.72;47.31;102037.16;6324592;22;20007;-77
2022/07/14 10:01:08;;;;;;;5.97;1.33;;;;;;;22.89;47.69;102036.25;6312843;22;20056;-79
2022/07/14 10:03:37;;;;;;;7.20;3.28;;;;;;;22.81;45.52;102036.22;6310336;22;20084;-77
2022/07/14 10:06:04;;;;;;;7.38;1.50;;;;;;;22.88;45.86;102038.00;6313330;22;20006;-78
2022/07/14 10:08:33;;;;;;;3.53;1.00;;;;;;;22.86;44.15;102031.84;6310723;22;20018;-78
2022/07/14 10:11:01;;;;;;;3.97;1.10;;;;;;;22.78;44.92;102035.38;6306582;22;20431;-78
2022/07/14 10:13:26;;;;;;;3.78;0.93;;;;;;;22.83;46.39;102037.13;6279358;22;20000;-79
2022/07/14 10:15:53;;;;;;;5.05;1.33;;;;;;;22.91;46.72;102037.09;6279215;22;20011;-78
2022/07/14 10:18:20;;;;;;;5.90;1.50;;;;;;;22.93;45.97;102044.09;6279588;22;19987;-77
2022/07/14 10:20:48;;;;;;;4.07;1.23;;;;;;;22.90;44.72;102041.47;6306892;22;19995;-78
2022/07/14 10:23:14;;;;;;;7.22;1.35;;;;;;;22.98;44.56;102042.31;6278523;22;20007;-79
2022/07/14 10:25:41;;;;;;;3.47;1.10;;;;;;;23.01;45.85;102044.94;6277293;22;20022;-78
2022/07/14 10:28:07;;;;;;;3.05;1.00;;;;;;;23.04;46.20;102048.41;6228461;22;20056;-79
2022/07/14 10:30:59;;;;;;;5.28;1.25;;;;;;;23.15;45.19;102047.47;6305658;22;20007;-79
2022/07/14 10:33:45;;;;;;;5.25;1.40;;;;;;;23.16;43.41;102043.97;6290140;22;20026;-77
2022/07/14 10:36:13;;;;;;;4.25;1.50;;;;;;;23.13;44.01;102044.00;6304942;22;20034;-78
2022/07/14 10:38:51;;;;;;;3.22;0.93;;;;;;;23.17;43.27;102039.59;6306226;22;20014;-78
2022/07/14 10:41:55;;;;;;;5.15;1.00;;;;;;;23.28;44.31;102040.41;6306169;22;20010;-77
2022/07/14 10:44:29;;;;;;;4.85;1.48;;;;;;;23.26;43.31;102032.56;6305089;22;20003;-77
2022/07/14 10:47:15;;;;;;;6.50;1.20;;;;;;;23.38;44.87;102033.38;6308145;22;20003;-79
2022/07/14 10:50:00;;;;;;;6.78;1.30;;;;;;;23.37;44.03;102036.88;6306215;22;20131;-78
2022/07/14 10:52:27;;;;;;;5.97;1.33;;;;;;;23.35;44.75;102028.97;6307601;22;20010;-78
2022/07/14 10:55:12;;;;;;;5.15;1.30;;;;;;;23.38;45.64;102028.97;6307039;22;20006;-77
2022/07/14 10:57:38;;;;;;;5.25;1.20;;;;;;;23.44;45.57;102034.19;6305945;22;20006;-79
2022/07/14 11:00:05;;;;;;;6.95;1.33;;;;;;;23.45;44.13;102025.44;6277900;22;20003;-79
2022/07/14 11:02:32;;;;;;;3.30;1.08;;;;;;;23.58;43.80;102033.22;6306421;22;20003;-78
2022/07/14 11:07:52;;;;;;;7.00;1.50;;;;;;;23.65;40.66;102035.81;6306875;22;20423;-77
2022/07/14 11:10:21;;;;;;;2.78;1.00;;;;;;;23.57;39.51;102034.09;6306134;22;20030;-77
2022/07/14 11:13:04;;;;;;;6.18;1.40;;;;;;;23.60;40.52;102028.81;6305874;22;20461;-78
2022/07/14 11:15:53;;;;;;;4.90;1.23;;;;;;;23.62;41.29;102027.09;6305777;22;20035;-78
2022/07/14 11:18:21;;;;;;;3.65;1.10;;;;;;;23.76;41.96;102041.84;6308698;22;20007;-77
2022/07/14 11:21:15;;;;;;;4.93;1.70;;;;;;;23.70;40.71;102036.66;6308680;22;20070;-77
2022/07/14 11:23:46;;;;;;;6.88;1.38;;;;;;;23.69;41.04;102039.28;6306715;22;20006;-76
2022/07/14 11:26:37;;;;;;;6.35;1.70;;;;;;;23.75;42.59;102031.38;6308007;22;20006;-78
2022/07/14 11:29:04;;;;;;;4.88;1.40;;;;;;;23.70;41.78;102028.78;6308352;22;20310;-79
2022/07/14 11:31:48;;;;;;;6.82;1.45;;;;;;;23.84;42.77;102028.66;6282439;22;20007;-78
2022/07/14 11:37:15;;;;;;;6.07;1.15;;;;;;;23.81;41.60;102023.44;6276804;22;20019;-78